Portada
METAR-TAF:

METAR-TAF

Aeropuertos :

Area_Regional_Airport

South Haven, Míchigan, Estados Unidos

latitud: 42-21-03N, longitud: 086-15-22W, altitud: 203 m

Observación

El informe se hizo hace 11 minutos, a las 20:15 UTC
Viento 6 kt del oeste
Temperatura 31°C
Humedad 49%
Presión 1023 hPa
Visibilidad: 16.1 km
Cielo despejado

METAR: KLWA 192015Z AUTO 28006KT 10SM CLR 31/19 A3022 RMK AO2 T03130191

Hora: 16:26 (20:26 UTC)


TAF: falta

Observaciones y pronósticos meteorológicos de más de 4000 aeropuertos (mensajes METAR y TAF).

Los puntos amarillos y rojos representan las estaciones disponibles.

Ponga el ratón en el punto deseado para ver el nombre de la estación.

Haga clic para ver las observaciones y los pronósticos meteorológicos.

Para cambiar el mapa : haga clic en los botones verdes con una cruz de color negro para hacer un zoom, en el botón verde con un guión para alejar o en las flechas verdes para mapas adyacentes.


METAR-TAF: